sensor_id;sensor_type;location;lat;lon;timestamp;P1;durP1;ratioP1;P2;durP2;ratioP2
15327;SDS011;7764;51.430;6.840;2024-01-15T00:02:08;55.93;;;27.03;;
15327;SDS011;7764;51.430;6.840;2024-01-15T00:04:38;53.47;;;26.77;;
15327;SDS011;7764;51.430;6.840;2024-01-15T00:07:05;53.20;;;27.93;;
15327;SDS011;7764;51.430;6.840;2024-01-15T00:09:32;53.83;;;27.53;;
15327;SDS011;7764;51.430;6.840;2024-01-15T00:12:01;53.30;;;26.40;;
15327;SDS011;7764;51.430;6.840;2024-01-15T00:14:28;56.57;;;27.17;;
15327;SDS011;7764;51.430;6.840;2024-01-15T00:16:55;55.20;;;27.07;;
15327;SDS011;7764;51.430;6.840;2024-01-15T00:19:22;51.47;;;26.60;;
15327;SDS011;7764;51.430;6.840;2024-01-15T00:21:49;57.07;;;27.77;;
15327;SDS011;7764;51.430;6.840;2024-01-15T00:24:16;51.40;;;26.37;;
15327;SDS011;7764;51.430;6.840;2024-01-15T00:26:42;57.57;;;28.47;;
15327;SDS011;7764;51.430;6.840;2024-01-15T00:29:10;53.17;;;26.40;;
15327;SDS011;7764;51.430;6.840;2024-01-15T00:31:37;54.27;;;27.20;;
15327;SDS011;7764;51.430;6.840;2024-01-15T00:34:04;54.33;;;27.33;;
15327;SDS011;7764;51.430;6.840;2024-01-15T00:36:31;51.73;;;25.97;;
15327;SDS011;7764;51.430;6.840;2024-01-15T00:38:58;51.30;;;25.40;;
15327;SDS011;7764;51.430;6.840;2024-01-15T00:41:25;48.87;;;25.37;;
15327;SDS011;7764;51.430;6.840;2024-01-15T00:43:52;48.40;;;26.40;;
15327;SDS011;7764;51.430;6.840;2024-01-15T00:46:21;53.03;;;26.93;;
15327;SDS011;7764;51.430;6.840;2024-01-15T00:48:47;47.90;;;24.60;;
15327;SDS011;7764;51.430;6.840;2024-01-15T00:51:14;50.63;;;27.47;;
15327;SDS011;7764;51.430;6.840;2024-01-15T00:53:41;49.80;;;25.90;;
15327;SDS011;7764;51.430;6.840;2024-01-15T00:56:08;49.13;;;25.77;;
15327;SDS011;7764;51.430;6.840;2024-01-15T00:58:35;46.07;;;25.50;;
15327;SDS011;7764;51.430;6.840;2024-01-15T01:01:01;47.50;;;25.43;;
15327;SDS011;7764;51.430;6.840;2024-01-15T01:03:30;54.87;;;25.80;;
15327;SDS011;7764;51.430;6.840;2024-01-15T01:05:57;54.93;;;27.33;;
15327;SDS011;7764;51.430;6.840;2024-01-15T01:08:23;46.53;;;25.17;;
15327;SDS011;7764;51.430;6.840;2024-01-15T01:10:50;50.93;;;26.67;;
15327;SDS011;7764;51.430;6.840;2024-01-15T01:13:17;49.60;;;25.00;;
15327;SDS011;7764;51.430;6.840;2024-01-15T01:15:44;49.13;;;26.07;;
15327;SDS011;7764;51.430;6.840;2024-01-15T01:18:10;50.73;;;25.80;;
15327;SDS011;7764;51.430;6.840;2024-01-15T01:20:39;46.07;;;25.90;;
15327;SDS011;7764;51.430;6.840;2024-01-15T01:23:05;47.53;;;25.67;;
15327;SDS011;7764;51.430;6.840;2024-01-15T01:25:32;44.97;;;24.90;;
15327;SDS011;7764;51.430;6.840;2024-01-15T01:27:59;48.23;;;26.03;;
15327;SDS011;7764;51.430;6.840;2024-01-15T01:30:26;42.50;;;24.13;;
15327;SDS011;7764;51.430;6.840;2024-01-15T01:32:53;46.53;;;25.27;;
15327;SDS011;7764;51.430;6.840;2024-01-15T01:35:19;49.63;;;27.57;;
15327;SDS011;7764;51.430;6.840;2024-01-15T01:37:48;49.43;;;25.60;;
15327;SDS011;7764;51.430;6.840;2024-01-15T01:40:14;46.27;;;25.13;;
15327;SDS011;7764;51.430;6.840;2024-01-15T01:42:41;47.23;;;26.73;;
15327;SDS011;7764;51.430;6.840;2024-01-15T01:45:08;47.20;;;26.07;;
15327;SDS011;7764;51.430;6.840;2024-01-15T01:47:36;52.57;;;27.20;;
15327;SDS011;7764;51.430;6.840;2024-01-15T01:50:04;50.37;;;27.30;;
15327;SDS011;7764;51.430;6.840;2024-01-15T01:52:32;49.50;;;26.87;;
15327;SDS011;7764;51.430;6.840;2024-01-15T01:55:01;51.43;;;27.37;;
15327;SDS011;7764;51.430;6.840;2024-01-15T01:57:29;48.60;;;25.97;;
15327;SDS011;7764;51.430;6.840;2024-01-15T01:59:57;45.77;;;23.37;;
15327;SDS011;7764;51.430;6.840;2024-01-15T02:02:24;45.33;;;23.80;;
15327;SDS011;7764;51.430;6.840;2024-01-15T02:04:52;47.33;;;25.03;;
15327;SDS011;7764;51.430;6.840;2024-01-15T02:07:19;44.47;;;23.37;;
15327;SDS011;7764;51.430;6.840;2024-01-15T02:09:46;45.97;;;24.30;;
15327;SDS011;7764;51.430;6.840;2024-01-15T02:12:14;42.17;;;22.43;;
15327;SDS011;7764;51.430;6.840;2024-01-15T02:14:41;41.00;;;22.43;;
15327;SDS011;7764;51.430;6.840;2024-01-15T02:17:08;42.13;;;22.80;;
15327;SDS011;7764;51.430;6.840;2024-01-15T02:19:35;43.67;;;23.07;;
15327;SDS011;7764;51.430;6.840;2024-01-15T02:22:02;40.73;;;20.90;;
15327;SDS011;7764;51.430;6.840;2024-01-15T02:24:30;41.00;;;21.30;;
15327;SDS011;7764;51.430;6.840;2024-01-15T02:26:57;42.50;;;21.77;;
15327;SDS011;7764;51.430;6.840;2024-01-15T02:29:24;42.10;;;20.57;;
15327;SDS011;7764;51.430;6.840;2024-01-15T02:31:51;43.07;;;21.23;;
15327;SDS011;7764;51.430;6.840;2024-01-15T02:34:18;37.93;;;19.97;;
15327;SDS011;7764;51.430;6.840;2024-01-15T02:36:44;42.50;;;21.40;;
15327;SDS011;7764;51.430;6.840;2024-01-15T02:39:11;39.50;;;20.47;;
15327;SDS011;7764;51.430;6.840;2024-01-15T02:41:39;35.27;;;20.03;;
15327;SDS011;7764;51.430;6.840;2024-01-15T02:44:06;41.30;;;20.60;;
15327;SDS011;7764;51.430;6.840;2024-01-15T02:46:33;39.37;;;21.03;;
15327;SDS011;7764;51.430;6.840;2024-01-15T02:49:00;34.90;;;18.37;;
15327;SDS011;7764;51.430;6.840;2024-01-15T02:51:26;36.07;;;18.10;;
15327;SDS011;7764;51.430;6.840;2024-01-15T02:53:53;37.20;;;18.40;;
15327;SDS011;7764;51.430;6.840;2024-01-15T02:56:20;38.20;;;19.10;;
15327;SDS011;7764;51.430;6.840;2024-01-15T02:58:48;37.10;;;18.33;;
15327;SDS011;7764;51.430;6.840;2024-01-15T03:01:17;43.17;;;19.27;;
15327;SDS011;7764;51.430;6.840;2024-01-15T03:03:44;35.67;;;17.43;;
15327;SDS011;7764;51.430;6.840;2024-01-15T03:06:11;27.93;;;15.90;;
15327;SDS011;7764;51.430;6.840;2024-01-15T03:08:38;33.83;;;17.73;;
15327;SDS011;7764;51.430;6.840;2024-01-15T03:11:05;32.73;;;17.80;;
15327;SDS011;7764;51.430;6.840;2024-01-15T03:13:35;28.77;;;15.73;;
15327;SDS011;7764;51.430;6.840;2024-01-15T03:16:03;28.87;;;16.53;;
15327;SDS011;7764;51.430;6.840;2024-01-15T03:18:30;31.83;;;16.90;;
15327;SDS011;7764;51.430;6.840;2024-01-15T03:20:57;31.33;;;15.77;;
15327;SDS011;7764;51.430;6.840;2024-01-15T03:23:26;29.90;;;16.10;;
15327;SDS011;7764;51.430;6.840;2024-01-15T03:25:53;31.43;;;16.27;;
15327;SDS011;7764;51.430;6.840;2024-01-15T03:28:19;26.20;;;14.97;;
15327;SDS011;7764;51.430;6.840;2024-01-15T03:30:46;29.77;;;16.07;;
15327;SDS011;7764;51.430;6.840;2024-01-15T03:33:14;30.37;;;15.73;;
15327;SDS011;7764;51.430;6.840;2024-01-15T03:35:41;29.27;;;15.10;;
15327;SDS011;7764;51.430;6.840;2024-01-15T03:38:08;24.87;;;13.90;;
15327;SDS011;7764;51.430;6.840;2024-01-15T03:40:35;24.23;;;14.37;;
15327;SDS011;7764;51.430;6.840;2024-01-15T03:43:01;27.90;;;16.07;;
15327;SDS011;7764;51.430;6.840;2024-01-15T03:45:28;25.87;;;15.17;;
15327;SDS011;7764;51.430;6.840;2024-01-15T03:47:55;30.30;;;15.70;;
15327;SDS011;7764;51.430;6.840;2024-01-15T03:50:23;28.70;;;16.17;;
15327;SDS011;7764;51.430;6.840;2024-01-15T03:52:50;32.43;;;17.40;;
15327;SDS011;7764;51.430;6.840;2024-01-15T03:55:17;28.30;;;17.23;;
15327;SDS011;7764;51.430;6.840;2024-01-15T03:57:44;30.70;;;18.03;;
15327;SDS011;7764;51.430;6.840;2024-01-15T04:00:11;30.13;;;18.17;;
15327;SDS011;7764;51.430;6.840;2024-01-15T04:02:39;33.00;;;19.30;;
15327;SDS011;7764;51.430;6.840;2024-01-15T04:05:05;33.53;;;19.03;;
15327;SDS011;7764;51.430;6.840;2024-01-15T04:07:34;34.00;;;19.27;;
15327;SDS011;7764;51.430;6.840;2024-01-15T04:10:01;32.03;;;18.57;;
15327;SDS011;7764;51.430;6.840;2024-01-15T04:12:28;30.10;;;18.37;;
15327;SDS011;7764;51.430;6.840;2024-01-15T04:14:54;34.10;;;19.60;;
15327;SDS011;7764;51.430;6.840;2024-01-15T04:17:21;33.73;;;18.93;;
15327;SDS011;7764;51.430;6.840;2024-01-15T04:19:48;33.03;;;18.90;;
15327;SDS011;7764;51.430;6.840;2024-01-15T04:22:15;33.10;;;19.03;;
15327;SDS011;7764;51.430;6.840;2024-01-15T04:24:43;32.40;;;18.70;;
15327;SDS011;7764;51.430;6.840;2024-01-15T04:27:10;32.90;;;17.87;;
15327;SDS011;7764;51.430;6.840;2024-01-15T04:29:37;33.77;;;18.07;;
15327;SDS011;7764;51.430;6.840;2024-01-15T04:32:04;35.67;;;22.20;;
15327;SDS011;7764;51.430;6.840;2024-01-15T04:34:31;28.30;;;17.90;;
15327;SDS011;7764;51.430;6.840;2024-01-15T04:36:58;31.00;;;17.43;;
15327;SDS011;7764;51.430;6.840;2024-01-15T04:39:25;29.80;;;18.03;;
15327;SDS011;7764;51.430;6.840;2024-01-15T04:41:53;27.20;;;16.73;;
15327;SDS011;7764;51.430;6.840;2024-01-15T04:44:19;28.57;;;16.80;;
15327;SDS011;7764;51.430;6.840;2024-01-15T04:46:45;27.50;;;15.73;;
15327;SDS011;7764;51.430;6.840;2024-01-15T04:49:13;25.10;;;15.57;;
15327;SDS011;7764;51.430;6.840;2024-01-15T04:51:39;25.13;;;15.77;;
15327;SDS011;7764;51.430;6.840;2024-01-15T04:54:06;27.63;;;16.17;;
15327;SDS011;7764;51.430;6.840;2024-01-15T04:56:33;26.90;;;15.87;;
15327;SDS011;7764;51.430;6.840;2024-01-15T04:59:01;29.40;;;16.50;;
15327;SDS011;7764;51.430;6.840;2024-01-15T05:01:30;28.50;;;16.60;;
15327;SDS011;7764;51.430;6.840;2024-01-15T05:03:57;27.70;;;17.13;;
15327;SDS011;7764;51.430;6.840;2024-01-15T05:06:24;29.33;;;16.43;;
15327;SDS011;7764;51.430;6.840;2024-01-15T05:08:51;30.60;;;17.17;;
15327;SDS011;7764;51.430;6.840;2024-01-15T05:11:18;24.17;;;16.70;;
15327;SDS011;7764;51.430;6.840;2024-01-15T05:13:44;24.77;;;16.00;;
15327;SDS011;7764;51.430;6.840;2024-01-15T05:16:13;27.17;;;16.37;;
15327;SDS011;7764;51.430;6.840;2024-01-15T05:18:39;75.30;;;41.27;;
15327;SDS011;7764;51.430;6.840;2024-01-15T05:21:06;42.87;;;24.87;;
15327;SDS011;7764;51.430;6.840;2024-01-15T05:23:33;25.73;;;15.67;;
15327;SDS011;7764;51.430;6.840;2024-01-15T05:26:01;26.70;;;15.70;;
15327;SDS011;7764;51.430;6.840;2024-01-15T05:28:28;28.17;;;15.83;;
15327;SDS011;7764;51.430;6.840;2024-01-15T05:30:54;26.57;;;14.37;;
15327;SDS011;7764;51.430;6.840;2024-01-15T05:33:23;27.33;;;14.47;;
15327;SDS011;7764;51.430;6.840;2024-01-15T05:35:50;25.87;;;15.47;;
15327;SDS011;7764;51.430;6.840;2024-01-15T05:38:17;27.47;;;15.20;;
15327;SDS011;7764;51.430;6.840;2024-01-15T05:40:43;28.93;;;14.47;;
15327;SDS011;7764;51.430;6.840;2024-01-15T05:43:10;26.07;;;14.53;;
15327;SDS011;7764;51.430;6.840;2024-01-15T05:45:38;25.37;;;13.93;;
15327;SDS011;7764;51.430;6.840;2024-01-15T05:48:05;22.70;;;14.40;;
15327;SDS011;7764;51.430;6.840;2024-01-15T05:50:33;26.80;;;13.80;;
15327;SDS011;7764;51.430;6.840;2024-01-15T05:53:00;23.23;;;13.50;;
15327;SDS011;7764;51.430;6.840;2024-01-15T05:55:27;23.27;;;14.20;;
15327;SDS011;7764;51.430;6.840;2024-01-15T05:57:54;22.70;;;13.70;;
15327;SDS011;7764;51.430;6.840;2024-01-15T06:00:21;25.57;;;13.37;;
15327;SDS011;7764;51.430;6.840;2024-01-15T06:02:48;24.77;;;13.60;;
15327;SDS011;7764;51.430;6.840;2024-01-15T06:05:15;24.60;;;13.03;;
15327;SDS011;7764;51.430;6.840;2024-01-15T06:07:43;26.83;;;13.20;;
15327;SDS011;7764;51.430;6.840;2024-01-15T06:10:10;22.67;;;12.53;;
15327;SDS011;7764;51.430;6.840;2024-01-15T06:12:37;22.27;;;12.00;;
15327;SDS011;7764;51.430;6.840;2024-01-15T06:15:04;26.83;;;13.67;;
15327;SDS011;7764;51.430;6.840;2024-01-15T06:17:31;23.53;;;13.70;;
15327;SDS011;7764;51.430;6.840;2024-01-15T06:19:58;18.43;;;11.10;;
15327;SDS011;7764;51.430;6.840;2024-01-15T06:22:25;19.53;;;11.23;;
15327;SDS011;7764;51.430;6.840;2024-01-15T06:24:53;19.87;;;10.70;;
15327;SDS011;7764;51.430;6.840;2024-01-15T06:27:20;21.87;;;10.70;;
15327;SDS011;7764;51.430;6.840;2024-01-15T06:29:47;18.23;;;11.80;;
15327;SDS011;7764;51.430;6.840;2024-01-15T06:32:14;19.27;;;10.17;;
15327;SDS011;7764;51.430;6.840;2024-01-15T06:34:41;17.37;;;9.03;;
15327;SDS011;7764;51.430;6.840;2024-01-15T06:37:08;15.97;;;9.23;;
15327;SDS011;7764;51.430;6.840;2024-01-15T06:39:34;17.17;;;8.47;;
15327;SDS011;7764;51.430;6.840;2024-01-15T06:42:03;33.30;;;20.07;;
15327;SDS011;7764;51.430;6.840;2024-01-15T06:44:30;19.33;;;8.40;;
15327;SDS011;7764;51.430;6.840;2024-01-15T06:46:57;13.00;;;6.70;;
15327;SDS011;7764;51.430;6.840;2024-01-15T06:49:27;9.20;;;4.60;;
15327;SDS011;7764;51.430;6.840;2024-01-15T06:51:55;11.10;;;5.97;;
15327;SDS011;7764;51.430;6.840;2024-01-15T06:54:21;9.20;;;4.60;;
15327;SDS011;7764;51.430;6.840;2024-01-15T06:56:49;12.63;;;5.33;;
15327;SDS011;7764;51.430;6.840;2024-01-15T06:59:17;12.47;;;5.73;;
15327;SDS011;7764;51.430;6.840;2024-01-15T07:01:44;13.17;;;4.90;;
15327;SDS011;7764;51.430;6.840;2024-01-15T07:04:11;9.70;;;4.67;;
15327;SDS011;7764;51.430;6.840;2024-01-15T07:06:38;19.37;;;11.17;;
15327;SDS011;7764;51.430;6.840;2024-01-15T07:09:05;9.20;;;4.97;;
15327;SDS011;7764;51.430;6.840;2024-01-15T07:11:33;9.07;;;4.73;;
15327;SDS011;7764;51.430;6.840;2024-01-15T07:14:00;10.53;;;4.90;;
15327;SDS011;7764;51.430;6.840;2024-01-15T07:16:28;9.93;;;4.87;;
15327;SDS011;7764;51.430;6.840;2024-01-15T07:18:55;8.83;;;4.90;;
15327;SDS011;7764;51.430;6.840;2024-01-15T07:21:21;8.93;;;4.70;;
15327;SDS011;7764;51.430;6.840;2024-01-15T07:23:48;8.47;;;5.03;;
15327;SDS011;7764;51.430;6.840;2024-01-15T07:26:15;8.53;;;5.17;;
15327;SDS011;7764;51.430;6.840;2024-01-15T07:28:42;11.93;;;5.80;;
15327;SDS011;7764;51.430;6.840;2024-01-15T07:31:08;10.70;;;5.53;;
15327;SDS011;7764;51.430;6.840;2024-01-15T07:33:37;13.47;;;5.70;;
15327;SDS011;7764;51.430;6.840;2024-01-15T07:36:04;14.53;;;7.00;;
15327;SDS011;7764;51.430;6.840;2024-01-15T07:38:31;12.20;;;6.60;;
15327;SDS011;7764;51.430;6.840;2024-01-15T07:40:58;13.07;;;8.00;;
15327;SDS011;7764;51.430;6.840;2024-01-15T07:43:25;20.03;;;10.17;;
15327;SDS011;7764;51.430;6.840;2024-01-15T07:45:53;21.90;;;12.13;;
15327;SDS011;7764;51.430;6.840;2024-01-15T07:48:19;21.60;;;12.30;;
15327;SDS011;7764;51.430;6.840;2024-01-15T07:50:48;20.87;;;12.97;;
15327;SDS011;7764;51.430;6.840;2024-01-15T07:53:15;26.10;;;14.03;;
15327;SDS011;7764;51.430;6.840;2024-01-15T07:55:41;23.70;;;14.63;;
15327;SDS011;7764;51.430;6.840;2024-01-15T07:58:08;24.30;;;15.30;;
15327;SDS011;7764;51.430;6.840;2024-01-15T08:00:35;25.33;;;15.57;;
15327;SDS011;7764;51.430;6.840;2024-01-15T08:03:05;25.17;;;16.20;;
15327;SDS011;7764;51.430;6.840;2024-01-15T08:05:31;35.27;;;18.23;;
15327;SDS011;7764;51.430;6.840;2024-01-15T08:08:02;32.10;;;17.30;;
15327;SDS011;7764;51.430;6.840;2024-01-15T08:10:29;28.50;;;17.00;;
15327;SDS011;7764;51.430;6.840;2024-01-15T08:12:56;24.67;;;15.03;;
15327;SDS011;7764;51.430;6.840;2024-01-15T08:15:23;24.17;;;15.57;;
15327;SDS011;7764;51.430;6.840;2024-01-15T08:17:51;22.33;;;15.50;;
15327;SDS011;7764;51.430;6.840;2024-01-15T08:20:18;24.33;;;15.90;;
15327;SDS011;7764;51.430;6.840;2024-01-15T08:22:46;26.80;;;16.83;;
15327;SDS011;7764;51.430;6.840;2024-01-15T08:25:15;25.87;;;15.47;;
15327;SDS011;7764;51.430;6.840;2024-01-15T08:27:42;23.00;;;15.40;;
15327;SDS011;7764;51.430;6.840;2024-01-15T08:30:10;24.43;;;15.97;;
15327;SDS011;7764;51.430;6.840;2024-01-15T08:32:37;24.17;;;15.80;;
15327;SDS011;7764;51.430;6.840;2024-01-15T08:35:07;22.23;;;14.63;;
15327;SDS011;7764;51.430;6.840;2024-01-15T08:40:04;24.17;;;14.67;;
15327;SDS011;7764;51.430;6.840;2024-01-15T08:42:33;21.23;;;15.17;;
15327;SDS011;7764;51.430;6.840;2024-01-15T08:45:00;20.33;;;14.73;;
15327;SDS011;7764;51.430;6.840;2024-01-15T08:47:27;18.70;;;13.30;;
15327;SDS011;7764;51.430;6.840;2024-01-15T08:49:54;19.13;;;13.37;;
15327;SDS011;7764;51.430;6.840;2024-01-15T08:52:21;19.50;;;13.23;;
15327;SDS011;7764;51.430;6.840;2024-01-15T08:54:49;17.40;;;13.27;;
15327;SDS011;7764;51.430;6.840;2024-01-15T08:57:16;21.90;;;14.03;;
15327;SDS011;7764;51.430;6.840;2024-01-15T08:59:51;18.60;;;11.97;;
15327;SDS011;7764;51.430;6.840;2024-01-15T09:02:19;16.43;;;12.33;;
15327;SDS011;7764;51.430;6.840;2024-01-15T09:04:46;16.43;;;11.70;;
15327;SDS011;7764;51.430;6.840;2024-01-15T09:07:13;16.57;;;11.87;;
15327;SDS011;7764;51.430;6.840;2024-01-15T09:09:40;14.90;;;11.57;;
15327;SDS011;7764;51.430;6.840;2024-01-15T09:12:08;17.13;;;11.50;;
15327;SDS011;7764;51.430;6.840;2024-01-15T09:14:35;16.37;;;11.67;;
15327;SDS011;7764;51.430;6.840;2024-01-15T09:17:03;14.50;;;11.00;;
15327;SDS011;7764;51.430;6.840;2024-01-15T09:19:30;17.97;;;12.10;;
15327;SDS011;7764;51.430;6.840;2024-01-15T09:21:57;13.53;;;10.00;;
15327;SDS011;7764;51.430;6.840;2024-01-15T09:24:25;12.97;;;9.90;;
15327;SDS011;7764;51.430;6.840;2024-01-15T09:26:52;14.63;;;9.63;;
15327;SDS011;7764;51.430;6.840;2024-01-15T09:29:20;14.67;;;10.47;;
15327;SDS011;7764;51.430;6.840;2024-01-15T09:31:48;13.50;;;10.73;;
15327;SDS011;7764;51.430;6.840;2024-01-15T09:34:17;14.33;;;9.00;;
15327;SDS011;7764;51.430;6.840;2024-01-15T09:36:44;11.83;;;8.77;;
15327;SDS011;7764;51.430;6.840;2024-01-15T09:39:11;11.20;;;8.43;;
15327;SDS011;7764;51.430;6.840;2024-01-15T09:41:38;13.53;;;8.27;;
15327;SDS011;7764;51.430;6.840;2024-01-15T09:44:06;10.83;;;8.43;;
15327;SDS011;7764;51.430;6.840;2024-01-15T09:46:36;14.80;;;10.30;;
15327;SDS011;7764;51.430;6.840;2024-01-15T09:49:05;12.30;;;8.27;;
15327;SDS011;7764;51.430;6.840;2024-01-15T09:51:33;11.97;;;7.83;;
15327;SDS011;7764;51.430;6.840;2024-01-15T09:54:01;13.40;;;7.90;;
15327;SDS011;7764;51.430;6.840;2024-01-15T09:56:29;13.23;;;8.23;;
15327;SDS011;7764;51.430;6.840;2024-01-15T09:58:57;10.20;;;6.40;;
15327;SDS011;7764;51.430;6.840;2024-01-15T10:01:24;8.03;;;5.90;;
15327;SDS011;7764;51.430;6.840;2024-01-15T10:03:52;11.03;;;7.60;;
15327;SDS011;7764;51.430;6.840;2024-01-15T10:06:21;9.93;;;6.77;;
15327;SDS011;7764;51.430;6.840;2024-01-15T10:08:50;9.07;;;6.33;;
15327;SDS011;7764;51.430;6.840;2024-01-15T10:11:20;9.20;;;6.77;;
15327;SDS011;7764;51.430;6.840;2024-01-15T10:13:47;9.20;;;6.27;;
15327;SDS011;7764;51.430;6.840;2024-01-15T10:16:17;11.03;;;6.60;;
15327;SDS011;7764;51.430;6.840;2024-01-15T10:18:44;10.00;;;6.73;;
15327;SDS011;7764;51.430;6.840;2024-01-15T10:21:10;12.87;;;7.73;;
15327;SDS011;7764;51.430;6.840;2024-01-15T10:23:38;9.67;;;5.90;;
15327;SDS011;7764;51.430;6.840;2024-01-15T10:26:07;9.93;;;6.00;;
15327;SDS011;7764;51.430;6.840;2024-01-15T10:28:36;8.80;;;6.40;;
15327;SDS011;7764;51.430;6.840;2024-01-15T10:31:03;9.13;;;6.23;;
15327;SDS011;7764;51.430;6.840;2024-01-15T10:33:30;9.43;;;6.27;;
15327;SDS011;7764;51.430;6.840;2024-01-15T10:36:00;10.40;;;6.33;;
15327;SDS011;7764;51.430;6.840;2024-01-15T10:38:27;10.43;;;5.97;;
15327;SDS011;7764;51.430;6.840;2024-01-15T10:40:54;9.57;;;6.07;;
15327;SDS011;7764;51.430;6.840;2024-01-15T10:43:24;9.37;;;5.93;;
15327;SDS011;7764;51.430;6.840;2024-01-15T10:45:52;8.67;;;5.70;;
15327;SDS011;7764;51.430;6.840;2024-01-15T10:48:20;10.53;;;6.00;;
15327;SDS011;7764;51.430;6.840;2024-01-15T10:50:48;10.67;;;5.93;;
15327;SDS011;7764;51.430;6.840;2024-01-15T10:53:15;11.10;;;5.97;;
15327;SDS011;7764;51.430;6.840;2024-01-15T10:55:43;8.43;;;5.63;;
15327;SDS011;7764;51.430;6.840;2024-01-15T10:58:11;8.90;;;5.80;;
15327;SDS011;7764;51.430;6.840;2024-01-15T11:00:41;9.90;;;6.10;;
15327;SDS011;7764;51.430;6.840;2024-01-15T11:03:08;8.93;;;6.07;;
15327;SDS011;7764;51.430;6.840;2024-01-15T11:05:36;8.97;;;5.97;;
15327;SDS011;7764;51.430;6.840;2024-01-15T11:08:05;11.20;;;6.77;;
15327;SDS011;7764;51.430;6.840;2024-01-15T11:10:39;10.67;;;6.33;;
15327;SDS011;7764;51.430;6.840;2024-01-15T11:13:15;12.70;;;6.20;;
15327;SDS011;7764;51.430;6.840;2024-01-15T11:16:00;11.77;;;6.20;;
15327;SDS011;7764;51.430;6.840;2024-01-15T11:18:28;7.83;;;6.00;;
15327;SDS011;7764;51.430;6.840;2024-01-15T11:23:50;10.60;;;6.70;;
15327;SDS011;7764;51.430;6.840;2024-01-15T11:26:32;11.33;;;6.13;;
15327;SDS011;7764;51.430;6.840;2024-01-15T11:29:02;9.00;;;6.63;;
15327;SDS011;7764;51.430;6.840;2024-01-15T11:34:54;13.20;;;9.40;;
15327;SDS011;7764;51.430;6.840;2024-01-15T11:37:27;10.83;;;5.97;;
15327;SDS011;7764;51.430;6.840;2024-01-15T11:39:55;9.93;;;6.23;;
15327;SDS011;7764;51.430;6.840;2024-01-15T11:42:28;10.67;;;5.90;;
15327;SDS011;7764;51.430;6.840;2024-01-15T11:44:56;10.57;;;6.13;;
15327;SDS011;7764;51.430;6.840;2024-01-15T11:50:30;10.20;;;6.17;;
15327;SDS011;7764;51.430;6.840;2024-01-15T11:52:59;10.30;;;5.43;;
15327;SDS011;7764;51.430;6.840;2024-01-15T11:55:28;10.43;;;5.40;;
15327;SDS011;7764;51.430;6.840;2024-01-15T11:58:00;8.83;;;5.07;;
15327;SDS011;7764;51.430;6.840;2024-01-15T12:00:28;9.80;;;5.30;;
15327;SDS011;7764;51.430;6.840;2024-01-15T12:02:58;12.20;;;5.70;;
15327;SDS011;7764;51.430;6.840;2024-01-15T12:05:27;9.93;;;5.90;;
15327;SDS011;7764;51.430;6.840;2024-01-15T12:07:56;7.30;;;4.90;;
15327;SDS011;7764;51.430;6.840;2024-01-15T12:10:23;8.83;;;5.40;;
15327;SDS011;7764;51.430;6.840;2024-01-15T12:12:53;8.70;;;5.00;;
15327;SDS011;7764;51.430;6.840;2024-01-15T12:15:27;11.57;;;4.70;;
15327;SDS011;7764;51.430;6.840;2024-01-15T12:17:57;8.83;;;4.40;;
15327;SDS011;7764;51.430;6.840;2024-01-15T12:20:25;10.23;;;4.53;;
15327;SDS011;7764;51.430;6.840;2024-01-15T12:22:53;10.17;;;4.13;;
15327;SDS011;7764;51.430;6.840;2024-01-15T12:25:20;10.30;;;4.40;;
15327;SDS011;7764;51.430;6.840;2024-01-15T12:27:47;11.73;;;4.73;;
15327;SDS011;7764;51.430;6.840;2024-01-15T12:30:14;13.57;;;4.60;;
15327;SDS011;7764;51.430;6.840;2024-01-15T12:32:42;9.73;;;4.40;;
15327;SDS011;7764;51.430;6.840;2024-01-15T12:35:10;17.23;;;10.37;;
15327;SDS011;7764;51.430;6.840;2024-01-15T12:37:40;10.73;;;5.00;;
15327;SDS011;7764;51.430;6.840;2024-01-15T12:40:09;43.67;;;20.67;;
15327;SDS011;7764;51.430;6.840;2024-01-15T12:42:37;8.33;;;3.90;;
15327;SDS011;7764;51.430;6.840;2024-01-15T12:45:05;8.67;;;3.67;;
15327;SDS011;7764;51.430;6.840;2024-01-15T12:47:33;7.77;;;3.67;;
15327;SDS011;7764;51.430;6.840;2024-01-15T12:50:00;11.23;;;4.63;;
15327;SDS011;7764;51.430;6.840;2024-01-15T12:52:29;6.43;;;4.10;;
15327;SDS011;7764;51.430;6.840;2024-01-15T12:54:56;7.73;;;4.03;;
15327;SDS011;7764;51.430;6.840;2024-01-15T12:57:24;8.43;;;4.20;;
15327;SDS011;7764;51.430;6.840;2024-01-15T12:59:51;9.47;;;4.27;;
15327;SDS011;7764;51.430;6.840;2024-01-15T13:02:20;27.00;;;14.93;;
15327;SDS011;7764;51.430;6.840;2024-01-15T13:04:48;9.90;;;5.33;;
15327;SDS011;7764;51.430;6.840;2024-01-15T13:07:15;9.70;;;3.63;;
15327;SDS011;7764;51.430;6.840;2024-01-15T13:09:44;8.77;;;4.90;;
15327;SDS011;7764;51.430;6.840;2024-01-15T13:12:12;8.40;;;4.43;;
15327;SDS011;7764;51.430;6.840;2024-01-15T13:14:40;7.63;;;4.17;;
15327;SDS011;7764;51.430;6.840;2024-01-15T13:17:07;8.03;;;4.33;;
15327;SDS011;7764;51.430;6.840;2024-01-15T13:19:35;8.30;;;4.40;;
15327;SDS011;7764;51.430;6.840;2024-01-15T13:22:04;9.83;;;5.07;;
15327;SDS011;7764;51.430;6.840;2024-01-15T13:24:32;9.73;;;5.20;;
15327;SDS011;7764;51.430;6.840;2024-01-15T13:27:00;10.47;;;4.87;;
15327;SDS011;7764;51.430;6.840;2024-01-15T13:29:27;9.27;;;4.83;;
15327;SDS011;7764;51.430;6.840;2024-01-15T13:31:54;8.90;;;5.20;;
15327;SDS011;7764;51.430;6.840;2024-01-15T13:34:21;9.07;;;5.47;;
15327;SDS011;7764;51.430;6.840;2024-01-15T13:36:48;9.50;;;5.47;;
15327;SDS011;7764;51.430;6.840;2024-01-15T13:39:15;8.63;;;5.57;;
15327;SDS011;7764;51.430;6.840;2024-01-15T13:41:47;7.53;;;5.37;;
15327;SDS011;7764;51.430;6.840;2024-01-15T13:44:18;12.50;;;7.40;;
15327;SDS011;7764;51.430;6.840;2024-01-15T13:46:45;11.23;;;5.80;;
15327;SDS011;7764;51.430;6.840;2024-01-15T13:49:12;9.23;;;5.73;;
15327;SDS011;7764;51.430;6.840;2024-01-15T13:51:39;13.00;;;6.27;;
15327;SDS011;7764;51.430;6.840;2024-01-15T13:54:06;9.00;;;5.73;;
15327;SDS011;7764;51.430;6.840;2024-01-15T13:56:33;11.07;;;5.40;;
15327;SDS011;7764;51.430;6.840;2024-01-15T13:59:00;10.20;;;5.60;;
15327;SDS011;7764;51.430;6.840;2024-01-15T14:01:30;8.93;;;4.97;;
15327;SDS011;7764;51.430;6.840;2024-01-15T14:03:58;15.07;;;5.60;;
15327;SDS011;7764;51.430;6.840;2024-01-15T14:06:25;7.27;;;4.70;;
15327;SDS011;7764;51.430;6.840;2024-01-15T14:08:52;6.87;;;3.80;;
15327;SDS011;7764;51.430;6.840;2024-01-15T14:11:18;8.53;;;3.80;;
15327;SDS011;7764;51.430;6.840;2024-01-15T14:13:45;5.23;;;3.47;;
15327;SDS011;7764;51.430;6.840;2024-01-15T14:16:13;8.00;;;4.30;;
15327;SDS011;7764;51.430;6.840;2024-01-15T14:18:41;12.53;;;8.20;;
15327;SDS011;7764;51.430;6.840;2024-01-15T14:21:08;7.37;;;3.50;;
15327;SDS011;7764;51.430;6.840;2024-01-15T14:23:35;7.13;;;4.00;;
15327;SDS011;7764;51.430;6.840;2024-01-15T14:26:02;5.63;;;3.20;;
15327;SDS011;7764;51.430;6.840;2024-01-15T14:28:29;8.63;;;3.43;;
15327;SDS011;7764;51.430;6.840;2024-01-15T14:30:56;9.13;;;3.67;;
15327;SDS011;7764;51.430;6.840;2024-01-15T14:33:25;5.27;;;3.10;;
15327;SDS011;7764;51.430;6.840;2024-01-15T14:35:53;6.77;;;3.73;;
15327;SDS011;7764;51.430;6.840;2024-01-15T14:38:20;4.53;;;3.10;;
15327;SDS011;7764;51.430;6.840;2024-01-15T14:40:48;5.27;;;3.10;;
15327;SDS011;7764;51.430;6.840;2024-01-15T14:43:16;7.87;;;2.97;;
15327;SDS011;7764;51.430;6.840;2024-01-15T14:45:45;4.63;;;2.97;;
15327;SDS011;7764;51.430;6.840;2024-01-15T14:48:13;7.33;;;3.53;;
15327;SDS011;7764;51.430;6.840;2024-01-15T14:50:40;5.33;;;2.83;;
15327;SDS011;7764;51.430;6.840;2024-01-15T14:53:08;6.83;;;2.73;;
15327;SDS011;7764;51.430;6.840;2024-01-15T14:55:35;5.33;;;2.80;;
15327;SDS011;7764;51.430;6.840;2024-01-15T14:58:04;6.47;;;3.20;;